sensor_id;sensor_type;location;lat;lon;timestamp;P1;durP1;ratioP1;P2;durP2;ratioP2
26062;SDS011;13837;48.562;12.108;2023-01-26T00:02:10;44.30;;;37.63;;
26062;SDS011;13837;48.562;12.108;2023-01-26T00:04:36;43.88;;;37.00;;
26062;SDS011;13837;48.562;12.108;2023-01-26T00:07:02;42.10;;;37.47;;
26062;SDS011;13837;48.562;12.108;2023-01-26T00:09:28;44.08;;;37.08;;
26062;SDS011;13837;48.562;12.108;2023-01-26T00:11:54;42.30;;;36.25;;
26062;SDS011;13837;48.562;12.108;2023-01-26T00:14:20;43.08;;;36.42;;
26062;SDS011;13837;48.562;12.108;2023-01-26T00:16:46;47.58;;;36.88;;
26062;SDS011;13837;48.562;12.108;2023-01-26T00:19:12;46.10;;;37.20;;
26062;SDS011;13837;48.562;12.108;2023-01-26T00:21:38;47.22;;;37.88;;
26062;SDS011;13837;48.562;12.108;2023-01-26T00:24:04;46.47;;;37.92;;
26062;SDS011;13837;48.562;12.108;2023-01-26T00:26:30;43.67;;;38.25;;
26062;SDS011;13837;48.562;12.108;2023-01-26T00:28:58;43.85;;;38.05;;
26062;SDS011;13837;48.562;12.108;2023-01-26T00:31:25;46.92;;;37.85;;
26062;SDS011;13837;48.562;12.108;2023-01-26T00:33:52;47.78;;;38.70;;
26062;SDS011;13837;48.562;12.108;2023-01-26T00:36:18;50.35;;;37.78;;
26062;SDS011;13837;48.562;12.108;2023-01-26T00:38:46;50.13;;;37.78;;
26062;SDS011;13837;48.562;12.108;2023-01-26T00:41:12;45.45;;;36.90;;
26062;SDS011;13837;48.562;12.108;2023-01-26T00:43:57;43.65;;;37.20;;
26062;SDS011;13837;48.562;12.108;2023-01-26T00:46:24;45.58;;;36.72;;
26062;SDS011;13837;48.562;12.108;2023-01-26T00:48:50;43.67;;;37.42;;
26062;SDS011;13837;48.562;12.108;2023-01-26T00:51:16;41.70;;;36.83;;
26062;SDS011;13837;48.562;12.108;2023-01-26T00:53:42;45.63;;;37.08;;
26062;SDS011;13837;48.562;12.108;2023-01-26T00:56:08;46.60;;;36.92;;
26062;SDS011;13837;48.562;12.108;2023-01-26T00:58:34;42.92;;;36.03;;
26062;SDS011;13837;48.562;12.108;2023-01-26T01:01:00;48.53;;;36.67;;
26062;SDS011;13837;48.562;12.108;2023-01-26T01:03:26;49.53;;;36.55;;
26062;SDS011;13837;48.562;12.108;2023-01-26T01:05:52;44.88;;;36.15;;
26062;SDS011;13837;48.562;12.108;2023-01-26T01:08:18;45.75;;;36.45;;
26062;SDS011;13837;48.562;12.108;2023-01-26T01:10:44;46.40;;;36.95;;
26062;SDS011;13837;48.562;12.108;2023-01-26T01:13:10;44.28;;;36.67;;
26062;SDS011;13837;48.562;12.108;2023-01-26T01:15:38;44.38;;;36.75;;
26062;SDS011;13837;48.562;12.108;2023-01-26T01:18:04;48.60;;;37.47;;
26062;SDS011;13837;48.562;12.108;2023-01-26T01:20:30;43.92;;;36.15;;
26062;SDS011;13837;48.562;12.108;2023-01-26T01:22:56;49.08;;;37.55;;
26062;SDS011;13837;48.562;12.108;2023-01-26T01:25:22;44.53;;;37.20;;
26062;SDS011;13837;48.562;12.108;2023-01-26T01:27:48;48.95;;;38.67;;
26062;SDS011;13837;48.562;12.108;2023-01-26T01:30:15;51.28;;;38.33;;
26062;SDS011;13837;48.562;12.108;2023-01-26T01:32:41;50.45;;;38.83;;
26062;SDS011;13837;48.562;12.108;2023-01-26T01:35:08;48.83;;;37.63;;
26062;SDS011;13837;48.562;12.108;2023-01-26T01:37:34;44.05;;;37.33;;
26062;SDS011;13837;48.562;12.108;2023-01-26T01:40:01;49.40;;;38.78;;
26062;SDS011;13837;48.562;12.108;2023-01-26T01:42:27;51.13;;;38.92;;
26062;SDS011;13837;48.562;12.108;2023-01-26T01:47:38;46.20;;;37.92;;
26062;SDS011;13837;48.562;12.108;2023-01-26T01:50:04;49.40;;;37.40;;
26062;SDS011;13837;48.562;12.108;2023-01-26T01:52:31;47.40;;;37.33;;
26062;SDS011;13837;48.562;12.108;2023-01-26T01:55:02;48.45;;;38.10;;
26062;SDS011;13837;48.562;12.108;2023-01-26T01:57:41;47.17;;;36.55;;
26062;SDS011;13837;48.562;12.108;2023-01-26T02:02:40;44.00;;;36.47;;
26062;SDS011;13837;48.562;12.108;2023-01-26T02:05:21;46.28;;;36.40;;
26062;SDS011;13837;48.562;12.108;2023-01-26T02:07:49;52.05;;;38.50;;
26062;SDS011;13837;48.562;12.108;2023-01-26T02:10:17;49.22;;;38.20;;
26062;SDS011;13837;48.562;12.108;2023-01-26T02:12:47;43.28;;;37.53;;
26062;SDS011;13837;48.562;12.108;2023-01-26T02:15:15;50.45;;;38.70;;
26062;SDS011;13837;48.562;12.108;2023-01-26T02:17:41;46.30;;;36.90;;
26062;SDS011;13837;48.562;12.108;2023-01-26T02:25:33;45.47;;;37.95;;
26062;SDS011;13837;48.562;12.108;2023-01-26T02:28:01;46.42;;;37.72;;
26062;SDS011;13837;48.562;12.108;2023-01-26T02:30:27;54.53;;;39.63;;
26062;SDS011;13837;48.562;12.108;2023-01-26T02:32:54;50.75;;;39.75;;
26062;SDS011;13837;48.562;12.108;2023-01-26T02:35:20;48.75;;;39.08;;
26062;SDS011;13837;48.562;12.108;2023-01-26T02:37:46;45.80;;;37.90;;
26062;SDS011;13837;48.562;12.108;2023-01-26T02:40:23;52.63;;;39.08;;
26062;SDS011;13837;48.562;12.108;2023-01-26T02:42:50;45.35;;;37.55;;
26062;SDS011;13837;48.562;12.108;2023-01-26T02:45:18;49.97;;;39.38;;
26062;SDS011;13837;48.562;12.108;2023-01-26T02:47:45;43.88;;;36.60;;
26062;SDS011;13837;48.562;12.108;2023-01-26T02:50:12;51.08;;;40.80;;
26062;SDS011;13837;48.562;12.108;2023-01-26T02:52:41;53.42;;;39.63;;
26062;SDS011;13837;48.562;12.108;2023-01-26T02:55:13;49.15;;;39.95;;
26062;SDS011;13837;48.562;12.108;2023-01-26T03:00:21;45.83;;;38.15;;
26062;SDS011;13837;48.562;12.108;2023-01-26T03:05:15;46.67;;;38.15;;
26062;SDS011;13837;48.562;12.108;2023-01-26T03:07:42;45.38;;;38.42;;
26062;SDS011;13837;48.562;12.108;2023-01-26T03:10:08;48.30;;;38.10;;
26062;SDS011;13837;48.562;12.108;2023-01-26T03:12:34;44.25;;;38.45;;
26062;SDS011;13837;48.562;12.108;2023-01-26T03:15:01;47.72;;;39.20;;
26062;SDS011;13837;48.562;12.108;2023-01-26T03:17:45;44.63;;;38.13;;
26062;SDS011;13837;48.562;12.108;2023-01-26T03:20:12;44.22;;;37.08;;
26062;SDS011;13837;48.562;12.108;2023-01-26T03:22:56;42.90;;;36.72;;
26062;SDS011;13837;48.562;12.108;2023-01-26T03:25:42;46.75;;;37.45;;
26062;SDS011;13837;48.562;12.108;2023-01-26T03:28:30;42.70;;;36.92;;
26062;SDS011;13837;48.562;12.108;2023-01-26T03:30:56;45.20;;;37.30;;
26062;SDS011;13837;48.562;12.108;2023-01-26T03:33:23;43.15;;;36.85;;
26062;SDS011;13837;48.562;12.108;2023-01-26T03:35:51;42.97;;;37.35;;
26062;SDS011;13837;48.562;12.108;2023-01-26T03:38:19;50.83;;;46.35;;
26062;SDS011;13837;48.562;12.108;2023-01-26T03:40:48;43.75;;;37.83;;
26062;SDS011;13837;48.562;12.108;2023-01-26T03:43:33;44.35;;;38.35;;
26062;SDS011;13837;48.562;12.108;2023-01-26T03:46:18;41.80;;;37.15;;
26062;SDS011;13837;48.562;12.108;2023-01-26T03:49:04;45.15;;;37.83;;
26062;SDS011;13837;48.562;12.108;2023-01-26T03:51:52;48.20;;;39.22;;
26062;SDS011;13837;48.562;12.108;2023-01-26T03:54:36;44.95;;;38.97;;
26062;SDS011;13837;48.562;12.108;2023-01-26T03:57:21;48.22;;;38.50;;
26062;SDS011;13837;48.562;12.108;2023-01-26T03:59:47;44.10;;;37.22;;
26062;SDS011;13837;48.562;12.108;2023-01-26T04:02:18;44.33;;;38.28;;
26062;SDS011;13837;48.562;12.108;2023-01-26T04:05:08;45.78;;;38.67;;
26062;SDS011;13837;48.562;12.108;2023-01-26T04:08:00;42.80;;;37.03;;
26062;SDS011;13837;48.562;12.108;2023-01-26T04:13:12;48.45;;;37.47;;
26062;SDS011;13837;48.562;12.108;2023-01-26T04:16:02;42.15;;;37.67;;
26062;SDS011;13837;48.562;12.108;2023-01-26T04:18:47;44.58;;;38.00;;
26062;SDS011;13837;48.562;12.108;2023-01-26T04:21:32;41.15;;;35.47;;
26062;SDS011;13837;48.562;12.108;2023-01-26T04:24:06;44.70;;;37.92;;
26062;SDS011;13837;48.562;12.108;2023-01-26T04:26:34;43.92;;;36.65;;
26062;SDS011;13837;48.562;12.108;2023-01-26T04:29:05;46.15;;;37.00;;
26062;SDS011;13837;48.562;12.108;2023-01-26T04:31:31;41.53;;;37.03;;
26062;SDS011;13837;48.562;12.108;2023-01-26T04:33:58;41.35;;;36.80;;
26062;SDS011;13837;48.562;12.108;2023-01-26T04:36:24;43.10;;;38.40;;
26062;SDS011;13837;48.562;12.108;2023-01-26T04:38:50;42.17;;;37.60;;
26062;SDS011;13837;48.562;12.108;2023-01-26T04:41:18;41.33;;;36.90;;
26062;SDS011;13837;48.562;12.108;2023-01-26T04:43:51;40.92;;;36.50;;
26062;SDS011;13837;48.562;12.108;2023-01-26T04:46:17;43.50;;;36.90;;
26062;SDS011;13837;48.562;12.108;2023-01-26T04:48:43;44.80;;;38.08;;
26062;SDS011;13837;48.562;12.108;2023-01-26T04:51:13;44.63;;;36.95;;
26062;SDS011;13837;48.562;12.108;2023-01-26T04:53:40;42.15;;;36.00;;
26062;SDS011;13837;48.562;12.108;2023-01-26T04:56:07;44.92;;;36.90;;
26062;SDS011;13837;48.562;12.108;2023-01-26T04:58:33;39.78;;;35.72;;
26062;SDS011;13837;48.562;12.108;2023-01-26T05:01:00;45.35;;;37.85;;
26062;SDS011;13837;48.562;12.108;2023-01-26T05:03:26;45.30;;;37.50;;
26062;SDS011;13837;48.562;12.108;2023-01-26T05:05:53;45.78;;;38.08;;
26062;SDS011;13837;48.562;12.108;2023-01-26T05:08:22;41.55;;;36.80;;
26062;SDS011;13837;48.562;12.108;2023-01-26T05:10:48;42.90;;;36.35;;
26062;SDS011;13837;48.562;12.108;2023-01-26T05:13:20;43.30;;;36.65;;
26062;SDS011;13837;48.562;12.108;2023-01-26T05:16:06;43.30;;;37.15;;
26062;SDS011;13837;48.562;12.108;2023-01-26T05:18:57;44.75;;;37.58;;
26062;SDS011;13837;48.562;12.108;2023-01-26T05:21:34;43.92;;;38.13;;
26062;SDS011;13837;48.562;12.108;2023-01-26T05:24:01;43.83;;;38.55;;
26062;SDS011;13837;48.562;12.108;2023-01-26T05:26:40;48.55;;;38.35;;
26062;SDS011;13837;48.562;12.108;2023-01-26T05:29:15;43.67;;;37.00;;
26062;SDS011;13837;48.562;12.108;2023-01-26T05:31:42;48.25;;;39.55;;
26062;SDS011;13837;48.562;12.108;2023-01-26T05:34:08;43.90;;;38.55;;
26062;SDS011;13837;48.562;12.108;2023-01-26T05:36:35;44.58;;;37.95;;
26062;SDS011;13837;48.562;12.108;2023-01-26T05:39:01;44.35;;;39.55;;
26062;SDS011;13837;48.562;12.108;2023-01-26T05:41:28;42.83;;;36.90;;
26062;SDS011;13837;48.562;12.108;2023-01-26T05:44:17;47.08;;;38.58;;
26062;SDS011;13837;48.562;12.108;2023-01-26T05:46:47;46.67;;;38.55;;
26062;SDS011;13837;48.562;12.108;2023-01-26T05:49:14;42.55;;;37.60;;
26062;SDS011;13837;48.562;12.108;2023-01-26T05:51:40;47.78;;;37.63;;
26062;SDS011;13837;48.562;12.108;2023-01-26T05:54:06;41.50;;;37.05;;
26062;SDS011;13837;48.562;12.108;2023-01-26T05:56:32;46.03;;;39.50;;
26062;SDS011;13837;48.562;12.108;2023-01-26T05:59:01;45.47;;;39.75;;
26062;SDS011;13837;48.562;12.108;2023-01-26T06:01:28;43.60;;;38.75;;
26062;SDS011;13837;48.562;12.108;2023-01-26T06:03:58;47.55;;;38.83;;
26062;SDS011;13837;48.562;12.108;2023-01-26T06:06:29;47.95;;;38.35;;
26062;SDS011;13837;48.562;12.108;2023-01-26T06:09:10;49.85;;;40.95;;
26062;SDS011;13837;48.562;12.108;2023-01-26T06:11:55;56.33;;;42.72;;
26062;SDS011;13837;48.562;12.108;2023-01-26T06:14:37;53.10;;;43.72;;
26062;SDS011;13837;48.562;12.108;2023-01-26T06:17:03;47.88;;;39.45;;
26062;SDS011;13837;48.562;12.108;2023-01-26T06:19:29;46.42;;;37.67;;
26062;SDS011;13837;48.562;12.108;2023-01-26T06:21:58;49.75;;;38.75;;
26062;SDS011;13837;48.562;12.108;2023-01-26T06:24:24;42.83;;;37.80;;
26062;SDS011;13837;48.562;12.108;2023-01-26T06:26:51;50.35;;;38.83;;
26062;SDS011;13837;48.562;12.108;2023-01-26T06:29:17;46.63;;;38.88;;
26062;SDS011;13837;48.562;12.108;2023-01-26T06:31:43;43.75;;;38.95;;
26062;SDS011;13837;48.562;12.108;2023-01-26T06:34:10;51.88;;;40.28;;
26062;SDS011;13837;48.562;12.108;2023-01-26T06:36:39;53.97;;;41.25;;
26062;SDS011;13837;48.562;12.108;2023-01-26T06:39:07;52.15;;;39.90;;
26062;SDS011;13837;48.562;12.108;2023-01-26T06:41:34;51.67;;;39.97;;
26062;SDS011;13837;48.562;12.108;2023-01-26T06:44:00;47.80;;;39.28;;
26062;SDS011;13837;48.562;12.108;2023-01-26T06:46:27;51.40;;;40.40;;
26062;SDS011;13837;48.562;12.108;2023-01-26T06:48:53;50.60;;;41.00;;
26062;SDS011;13837;48.562;12.108;2023-01-26T06:56:36;49.65;;;42.13;;
26062;SDS011;13837;48.562;12.108;2023-01-26T06:59:28;47.53;;;41.50;;
26062;SDS011;13837;48.562;12.108;2023-01-26T07:02:22;51.83;;;40.95;;
26062;SDS011;13837;48.562;12.108;2023-01-26T07:04:48;50.90;;;40.53;;
26062;SDS011;13837;48.562;12.108;2023-01-26T07:07:14;47.28;;;40.40;;
26062;SDS011;13837;48.562;12.108;2023-01-26T07:09:40;47.53;;;39.95;;
26062;SDS011;13837;48.562;12.108;2023-01-26T07:12:06;45.33;;;39.10;;
26062;SDS011;13837;48.562;12.108;2023-01-26T07:14:33;45.17;;;39.97;;
26062;SDS011;13837;48.562;12.108;2023-01-26T07:16:59;46.75;;;39.03;;
26062;SDS011;13837;48.562;12.108;2023-01-26T07:19:26;48.45;;;39.45;;
26062;SDS011;13837;48.562;12.108;2023-01-26T07:21:54;47.40;;;40.88;;
26062;SDS011;13837;48.562;12.108;2023-01-26T07:24:20;44.63;;;39.83;;
26062;SDS011;13837;48.562;12.108;2023-01-26T07:26:46;46.92;;;41.38;;
26062;SDS011;13837;48.562;12.108;2023-01-26T07:29:12;47.80;;;40.03;;
26062;SDS011;13837;48.562;12.108;2023-01-26T07:31:38;49.00;;;41.28;;
26062;SDS011;13837;48.562;12.108;2023-01-26T07:34:05;47.42;;;40.30;;
26062;SDS011;13837;48.562;12.108;2023-01-26T07:36:31;47.95;;;41.45;;
26062;SDS011;13837;48.562;12.108;2023-01-26T07:38:57;50.17;;;40.55;;
26062;SDS011;13837;48.562;12.108;2023-01-26T07:41:23;47.90;;;39.80;;
26062;SDS011;13837;48.562;12.108;2023-01-26T07:43:49;50.13;;;40.60;;
26062;SDS011;13837;48.562;12.108;2023-01-26T07:46:16;50.55;;;41.60;;
26062;SDS011;13837;48.562;12.108;2023-01-26T07:48:43;43.58;;;37.85;;
26062;SDS011;13837;48.562;12.108;2023-01-26T07:51:09;49.70;;;41.13;;
26062;SDS011;13837;48.562;12.108;2023-01-26T07:53:35;50.25;;;41.00;;
26062;SDS011;13837;48.562;12.108;2023-01-26T07:56:10;52.80;;;39.40;;
26062;SDS011;13837;48.562;12.108;2023-01-26T07:58:36;45.85;;;39.05;;
26062;SDS011;13837;48.562;12.108;2023-01-26T08:01:03;49.00;;;38.83;;
26062;SDS011;13837;48.562;12.108;2023-01-26T08:03:29;43.40;;;37.85;;
26062;SDS011;13837;48.562;12.108;2023-01-26T08:05:55;47.58;;;38.05;;
26062;SDS011;13837;48.562;12.108;2023-01-26T08:08:21;51.58;;;39.05;;
26062;SDS011;13837;48.562;12.108;2023-01-26T08:10:47;49.20;;;39.45;;
26062;SDS011;13837;48.562;12.108;2023-01-26T08:13:13;44.65;;;38.72;;
26062;SDS011;13837;48.562;12.108;2023-01-26T08:15:39;51.20;;;40.28;;
26062;SDS011;13837;48.562;12.108;2023-01-26T08:18:05;48.63;;;38.80;;
26062;SDS011;13837;48.562;12.108;2023-01-26T08:20:32;42.80;;;38.22;;
26062;SDS011;13837;48.562;12.108;2023-01-26T08:22:58;45.97;;;38.00;;
26062;SDS011;13837;48.562;12.108;2023-01-26T08:25:24;48.30;;;38.40;;
26062;SDS011;13837;48.562;12.108;2023-01-26T08:27:52;43.38;;;37.95;;
26062;SDS011;13837;48.562;12.108;2023-01-26T08:30:18;47.88;;;41.95;;
26062;SDS011;13837;48.562;12.108;2023-01-26T08:32:45;47.92;;;42.42;;
26062;SDS011;13837;48.562;12.108;2023-01-26T08:35:11;54.58;;;44.47;;
26062;SDS011;13837;48.562;12.108;2023-01-26T08:37:37;48.38;;;40.28;;
26062;SDS011;13837;48.562;12.108;2023-01-26T08:40:04;51.05;;;40.70;;
26062;SDS011;13837;48.562;12.108;2023-01-26T08:42:30;47.58;;;39.85;;
26062;SDS011;13837;48.562;12.108;2023-01-26T08:44:56;47.45;;;38.65;;
26062;SDS011;13837;48.562;12.108;2023-01-26T08:47:23;47.40;;;38.83;;
26062;SDS011;13837;48.562;12.108;2023-01-26T08:49:49;46.15;;;40.75;;
26062;SDS011;13837;48.562;12.108;2023-01-26T08:52:15;46.13;;;37.95;;
26062;SDS011;13837;48.562;12.108;2023-01-26T08:54:41;53.00;;;39.95;;
26062;SDS011;13837;48.562;12.108;2023-01-26T08:57:07;43.92;;;39.22;;
26062;SDS011;13837;48.562;12.108;2023-01-26T08:59:33;46.13;;;39.35;;
26062;SDS011;13837;48.562;12.108;2023-01-26T09:01:59;46.25;;;38.72;;
26062;SDS011;13837;48.562;12.108;2023-01-26T09:04:25;44.47;;;39.67;;
26062;SDS011;13837;48.562;12.108;2023-01-26T09:06:51;44.60;;;37.53;;
26062;SDS011;13837;48.562;12.108;2023-01-26T09:09:17;44.05;;;37.08;;
26062;SDS011;13837;48.562;12.108;2023-01-26T09:11:43;43.20;;;38.40;;
26062;SDS011;13837;48.562;12.108;2023-01-26T09:14:09;44.40;;;37.28;;
26062;SDS011;13837;48.562;12.108;2023-01-26T09:16:35;48.75;;;40.65;;
26062;SDS011;13837;48.562;12.108;2023-01-26T09:19:01;46.00;;;39.22;;
26062;SDS011;13837;48.562;12.108;2023-01-26T09:21:29;43.58;;;38.92;;
26062;SDS011;13837;48.562;12.108;2023-01-26T09:23:55;44.83;;;40.17;;
26062;SDS011;13837;48.562;12.108;2023-01-26T09:26:21;43.30;;;38.60;;
26062;SDS011;13837;48.562;12.108;2023-01-26T09:28:51;44.95;;;40.10;;
26062;SDS011;13837;48.562;12.108;2023-01-26T09:31:17;39.67;;;35.47;;
26062;SDS011;13837;48.562;12.108;2023-01-26T09:33:43;41.55;;;37.35;;
26062;SDS011;13837;48.562;12.108;2023-01-26T09:36:09;39.90;;;36.03;;
26062;SDS011;13837;48.562;12.108;2023-01-26T09:38:36;41.50;;;37.03;;
26062;SDS011;13837;48.562;12.108;2023-01-26T09:41:06;45.20;;;36.47;;
26062;SDS011;13837;48.562;12.108;2023-01-26T09:43:43;41.85;;;36.88;;
26062;SDS011;13837;48.562;12.108;2023-01-26T09:48:43;40.03;;;36.15;;
26062;SDS011;13837;48.562;12.108;2023-01-26T09:51:26;40.75;;;36.58;;
26062;SDS011;13837;48.562;12.108;2023-01-26T09:54:02;40.45;;;36.33;;
26062;SDS011;13837;48.562;12.108;2023-01-26T09:56:29;40.22;;;35.78;;
26062;SDS011;13837;48.562;12.108;2023-01-26T09:58:58;38.72;;;34.55;;
26062;SDS011;13837;48.562;12.108;2023-01-26T10:01:28;38.17;;;34.47;;
26062;SDS011;13837;48.562;12.108;2023-01-26T10:04:00;39.78;;;35.63;;
26062;SDS011;13837;48.562;12.108;2023-01-26T10:06:29;39.38;;;35.40;;
26062;SDS011;13837;48.562;12.108;2023-01-26T10:09:23;38.35;;;34.53;;
26062;SDS011;13837;48.562;12.108;2023-01-26T10:11:57;58.05;;;39.85;;
26062;SDS011;13837;48.562;12.108;2023-01-26T10:14:35;37.83;;;34.17;;
26062;SDS011;13837;48.562;12.108;2023-01-26T10:17:04;37.92;;;34.22;;
26062;SDS011;13837;48.562;12.108;2023-01-26T10:19:36;39.33;;;35.13;;
26062;SDS011;13837;48.562;12.108;2023-01-26T10:22:06;38.30;;;34.53;;
26062;SDS011;13837;48.562;12.108;2023-01-26T10:24:36;37.28;;;33.78;;
26062;SDS011;13837;48.562;12.108;2023-01-26T10:27:05;39.13;;;35.22;;
26062;SDS011;13837;48.562;12.108;2023-01-26T10:29:35;37.70;;;34.20;;
26062;SDS011;13837;48.562;12.108;2023-01-26T10:32:01;38.08;;;34.35;;
26062;SDS011;13837;48.562;12.108;2023-01-26T10:34:27;39.28;;;35.05;;
26062;SDS011;13837;48.562;12.108;2023-01-26T10:36:55;37.75;;;33.97;;
26062;SDS011;13837;48.562;12.108;2023-01-26T10:39:23;36.70;;;33.00;;
26062;SDS011;13837;48.562;12.108;2023-01-26T10:42:00;37.30;;;33.70;;
26062;SDS011;13837;48.562;12.108;2023-01-26T10:49:33;37.92;;;34.08;;
26062;SDS011;13837;48.562;12.108;2023-01-26T10:54:31;37.88;;;33.90;;
26062;SDS011;13837;48.562;12.108;2023-01-26T10:57:01;40.05;;;36.15;;
26062;SDS011;13837;48.562;12.108;2023-01-26T10:59:37;39.03;;;34.92;;
26062;SDS011;13837;48.562;12.108;2023-01-26T11:04:37;37.88;;;34.17;;
26062;SDS011;13837;48.562;12.108;2023-01-26T11:07:14;37.10;;;33.08;;
26062;SDS011;13837;48.562;12.108;2023-01-26T11:09:49;36.13;;;32.65;;
26062;SDS011;13837;48.562;12.108;2023-01-26T11:12:16;37.15;;;33.53;;
26062;SDS011;13837;48.562;12.108;2023-01-26T11:14:57;37.00;;;33.60;;
26062;SDS011;13837;48.562;12.108;2023-01-26T11:17:24;37.40;;;33.78;;
26062;SDS011;13837;48.562;12.108;2023-01-26T11:25:12;37.53;;;34.30;;
26062;SDS011;13837;48.562;12.108;2023-01-26T11:28:04;38.83;;;35.35;;
26062;SDS011;13837;48.562;12.108;2023-01-26T11:33:15;37.72;;;33.95;;
26062;SDS011;13837;48.562;12.108;2023-01-26T11:38:25;39.95;;;36.30;;
26062;SDS011;13837;48.562;12.108;2023-01-26T11:40:56;43.42;;;39.20;;
26062;SDS011;13837;48.562;12.108;2023-01-26T11:58:24;43.08;;;36.80;;
26062;SDS011;13837;48.562;12.108;2023-01-26T12:00:51;39.90;;;35.90;;
26062;SDS011;13837;48.562;12.108;2023-01-26T12:03:41;39.35;;;35.33;;
26062;SDS011;13837;48.562;12.108;2023-01-26T12:06:05;38.50;;;34.67;;
26062;SDS011;13837;48.562;12.108;2023-01-26T12:08:36;37.92;;;34.30;;
26062;SDS011;13837;48.562;12.108;2023-01-26T12:11:18;38.95;;;35.03;;
26062;SDS011;13837;48.562;12.108;2023-01-26T12:16:16;37.80;;;34.00;;
26062;SDS011;13837;48.562;12.108;2023-01-26T12:18:46;38.92;;;34.72;;
26062;SDS011;13837;48.562;12.108;2023-01-26T12:21:13;37.75;;;33.85;;
26062;SDS011;13837;48.562;12.108;2023-01-26T12:26:19;38.10;;;34.20;;
26062;SDS011;13837;48.562;12.108;2023-01-26T12:28:48;40.80;;;36.45;;
26062;SDS011;13837;48.562;12.108;2023-01-26T12:31:21;38.67;;;34.70;;
26062;SDS011;13837;48.562;12.108;2023-01-26T12:33:50;40.40;;;36.60;;
26062;SDS011;13837;48.562;12.108;2023-01-26T12:36:32;38.80;;;35.08;;
26062;SDS011;13837;48.562;12.108;2023-01-26T12:44:24;37.92;;;34.33;;
26062;SDS011;13837;48.562;12.108;2023-01-26T12:46:58;36.20;;;32.85;;
26062;SDS011;13837;48.562;12.108;2023-01-26T12:49:34;36.58;;;33.10;;
26062;SDS011;13837;48.562;12.108;2023-01-26T12:52:06;37.15;;;33.67;;
26062;SDS011;13837;48.562;12.108;2023-01-26T12:56:59;40.75;;;34.55;;
26062;SDS011;13837;48.562;12.108;2023-01-26T12:59:33;39.33;;;35.20;;
26062;SDS011;13837;48.562;12.108;2023-01-26T13:02:07;36.70;;;33.20;;
26062;SDS011;13837;48.562;12.108;2023-01-26T13:04:34;36.40;;;33.03;;
26062;SDS011;13837;48.562;12.108;2023-01-26T13:07:02;36.22;;;32.85;;
26062;SDS011;13837;48.562;12.108;2023-01-26T13:09:28;36.58;;;32.95;;
26062;SDS011;13837;48.562;12.108;2023-01-26T13:11:55;36.63;;;33.00;;
26062;SDS011;13837;48.562;12.108;2023-01-26T13:14:24;39.30;;;35.25;;
26062;SDS011;13837;48.562;12.108;2023-01-26T13:16:50;44.97;;;36.65;;
26062;SDS011;13837;48.562;12.108;2023-01-26T13:22:01;39.40;;;35.38;;
26062;SDS011;13837;48.562;12.108;2023-01-26T13:26:57;36.60;;;33.25;;
26062;SDS011;13837;48.562;12.108;2023-01-26T13:31:53;45.88;;;40.80;;
26062;SDS011;13837;48.562;12.108;2023-01-26T13:34:27;34.92;;;31.73;;
26062;SDS011;13837;48.562;12.108;2023-01-26T13:36:54;34.75;;;31.75;;
26062;SDS011;13837;48.562;12.108;2023-01-26T13:39:28;35.72;;;32.58;;
26062;SDS011;13837;48.562;12.108;2023-01-26T13:41:55;35.70;;;32.60;;
26062;SDS011;13837;48.562;12.108;2023-01-26T13:44:29;36.10;;;32.92;;
26062;SDS011;13837;48.562;12.108;2023-01-26T13:47:04;37.60;;;34.10;;
26062;SDS011;13837;48.562;12.108;2023-01-26T13:49:36;37.03;;;33.83;;
26062;SDS011;13837;48.562;12.108;2023-01-26T13:52:03;38.58;;;34.97;;
26062;SDS011;13837;48.562;12.108;2023-01-26T13:54:40;39.13;;;35.67;;
26062;SDS011;13837;48.562;12.108;2023-01-26T13:57:09;38.30;;;34.58;;
26062;SDS011;13837;48.562;12.108;2023-01-26T14:02:37;40.28;;;36.28;;
26062;SDS011;13837;48.562;12.108;2023-01-26T14:05:03;40.60;;;36.63;;
26062;SDS011;13837;48.562;12.108;2023-01-26T14:07:40;39.03;;;35.38;;
26062;SDS011;13837;48.562;12.108;2023-01-26T14:10:07;41.70;;;37.85;;
26062;SDS011;13837;48.562;12.108;2023-01-26T14:12:44;40.92;;;37.10;;
26062;SDS011;13837;48.562;12.108;2023-01-26T14:15:27;41.58;;;37.53;;
26062;SDS011;13837;48.562;12.108;2023-01-26T14:17:58;42.80;;;38.63;;
26062;SDS011;13837;48.562;12.108;2023-01-26T14:20:25;40.58;;;36.88;;
26062;SDS011;13837;48.562;12.108;2023-01-26T14:25:47;38.92;;;35.42;;
26062;SDS011;13837;48.562;12.108;2023-01-26T14:28:21;40.47;;;36.75;;
26062;SDS011;13837;48.562;12.108;2023-01-26T14:30:51;45.13;;;40.58;;
26062;SDS011;13837;48.562;12.108;2023-01-26T14:33:18;45.90;;;41.38;;
26062;SDS011;13837;48.562;12.108;2023-01-26T14:35:55;40.15;;;36.85;;
26062;SDS011;13837;48.562;12.108;2023-01-26T14:38:21;38.75;;;35.40;;
26062;SDS011;13837;48.562;12.108;2023-01-26T14:40:51;40.35;;;36.97;;
26062;SDS011;13837;48.562;12.108;2023-01-26T14:43:19;40.63;;;37.38;;
26062;SDS011;13837;48.562;12.108;2023-01-26T14:45:53;38.97;;;35.67;;
26062;SDS011;13837;48.562;12.108;2023-01-26T14:48:21;41.22;;;37.58;;
26062;SDS011;13837;48.562;12.108;2023-01-26T14:50:49;39.10;;;35.67;;
26062;SDS011;13837;48.562;12.108;2023-01-26T14:53:19;38.97;;;35.75;;
26062;SDS011;13837;48.562;12.108;2023-01-26T14:55:45;44.50;;;40.30;;
26062;SDS011;13837;48.562;12.108;2023-01-26T14:58:31;38.65;;;35.42;;
26062;SDS011;13837;48.562;12.108;2023-01-26T15:00:59;36.88;;;34.00;;
26062;SDS011;13837;48.562;12.108;2023-01-26T15:08:34;38.05;;;34.90;;
26062;SDS011;13837;48.562;12.108;2023-01-26T15:11:01;39.67;;;36.35;;
26062;SDS011;13837;48.562;12.108;2023-01-26T15:13:48;37.72;;;34.63;;
26062;SDS011;13837;48.562;12.108;2023-01-26T15:16:17;38.88;;;35.63;;
26062;SDS011;13837;48.562;12.108;2023-01-26T15:18:44;41.80;;;38.10;;
26062;SDS011;13837;48.562;12.108;2023-01-26T15:21:17;42.25;;;38.13;;
26062;SDS011;13837;48.562;12.108;2023-01-26T15:23:45;40.78;;;37.13;;
26062;SDS011;13837;48.562;12.108;2023-01-26T15:28:40;40.17;;;36.55;;
26062;SDS011;13837;48.562;12.108;2023-01-26T15:31:06;41.17;;;37.47;;
26062;SDS011;13837;48.562;12.108;2023-01-26T15:36:22;40.72;;;37.25;;
26062;SDS011;13837;48.562;12.108;2023-01-26T15:38:50;39.17;;;35.55;;
26062;SDS011;13837;48.562;12.108;2023-01-26T15:41:18;39.13;;;35.95;;
26062;SDS011;13837;48.562;12.108;2023-01-26T15:43:44;37.67;;;34.67;;
26062;SDS011;13837;48.562;12.108;2023-01-26T15:46:10;40.95;;;37.47;;
26062;SDS011;13837;48.562;12.108;2023-01-26T15:48:36;43.47;;;39.38;;
26062;SDS011;13837;48.562;12.108;2023-01-26T15:51:04;42.67;;;38.50;;
26062;SDS011;13837;48.562;12.108;2023-01-26T15:53:30;43.72;;;39.40;;
26062;SDS011;13837;48.562;12.108;2023-01-26T15:55:56;40.83;;;37.13;;
26062;SDS011;13837;48.562;12.108;2023-01-26T15:58:24;42.00;;;38.55;;
26062;SDS011;13837;48.562;12.108;2023-01-26T16:00:52;40.15;;;36.67;;
26062;SDS011;13837;48.562;12.108;2023-01-26T16:03:19;41.00;;;37.50;;